Tiempo atmosférico en la estación meteorológica de Jumilla, Murcia (505 m.)



Fecha
DESCASC
Temp. máxima en grados centígrados (hora)
DESCASC
Temp. mínima en grados centígrados (hora)
DESCASC
Temp. media en grados centígrados
DESCASC
Racha de viento máxima en m/sg (hora)
DESCASC
Velocidad máxima media en intervalos de 10 minutos(hora)
DESCASC
Precipitaciones diarias en mm
DESCASC
Precipitaciones de 00:00 a 06:00 en mm
DESCASC
Precipitaciones de 06:00 a 12:00 en mm
DESCASC
Precipitaciones de 12:00 a 18:00 en mm
DESCASC
Precipitaciones de 18:00 a 24:00 en mm
DESCASC
16-01-2020 17.3 (16:00) -1.3 (05:40) 8 5 (15:00) 3.33 (15:00) 0 0 0 0 0
15-01-2020 16.5 (15:40) -3 (08:10) 6.8 4.72 (16:10) 3.06 (16:10) 0 0 0 0 0
14-01-2020 14.9 (16:00) -1.8 (06:00) 6.5 5.28 (12:00) 2.5 (12:10) 0 0 0 0 0
13-01-2020 14.1 (15:30) -4.9 (08:00) 4.6 4.72 (16:00) 2.78 (16:00) 0 0 0 0 0
12-01-2020 14.2 (16:20) -3.8 (-00:0) 5.2 8.06 (14:50) 5 (14:10) 0 0 0 0 0
11-01-2020 14.4 (16:00) 0.8 (00:00) 7.6 4.44 (13:20) 2.5 (06:00) 0 0 0 0 0
10-01-2020 13.6 (14:10) 1.5 (00:00) 7.6 10.83 (19:00) 5.56 (18:10) 0 0 0 0 0
09-01-2020 14.2 (16:00) 4.1 (00:00) 9.1 3.61 (14:40) 2.22 (19:20) 0 0 0 0 0
08-01-2020 16.7 (15:20) -2.4 (-00:0) 7.2 7.5 (13:00) 4.44 (12:50) 0 0 0 0 0
07-01-2020 15.8 (15:10) -2.4 (-00:0) 6.7 4.72 (16:00) 3.33 (15:20) 0 0 0 0 0
06-01-2020 16.2 (15:40) -1.8 (-00:0) 7.2 4.44 (17:10) 3.06 (17:00) 0 0 0 0 0
05-01-2020 15.2 (16:00) -2.8 (-00:0) 6.2 3.89 (15:00) 2.78 (14:30) 0 0 0 0 0
04-01-2020 13.6 (15:10) -1.5 (-00:0) 6.1 6.67 (00:10) 3.61 (00:10) 0 0 0 0 0
03-01-2020 17 (15:40) -1.8 (-00:0) 7.6 6.39 (23:59) 3.89 (15:20) 0 0 0 0 0
02-01-2020 8.6 (16:20) 0.1 (00:00) 4.4 3.61 (16:40) 2.22 (16:40) 0.2 0 0.2 0 0
01-01-2020 15.4 (15:30) 0.6 (00:00) 8 4.72 (16:40) 3.06 (16:40) 0 0 0 0 0
31-12-2019 12.7 (16:20) -0.7 (-00:0) 6 3.61 (16:40) 2.22 (16:40) 0 0 0 0 0
30-12-2019 -- (--) -- (--) -- -- (--) -- (--) -- 0 0 -- 0
29-12-2019 14.1 (15:40) 0.7 (00:00) 7.4 4.44 (14:10) 2.5 (16:10) 0 0 0 0 0
28-12-2019 16.5 (15:20) -1.3 (-00:0) 7.6 5.83 (17:30) 3.61 (17:30) 0 0 0 0 0
27-12-2019 16.3 (14:10) 2.3 (00:00) 9.3 3.33 (16:00) 1.94 (01:40) 0 0 0 0 0
26-12-2019 20.7 (15:20) 6.3 (00:00) 13.5 6.67 (11:50) 3.61 (12:00) 0 0 0 0 0
25-12-2019 20.7 (14:50) 0.6 (00:00) 10.7 3.89 (21:40) 2.22 (21:50) 0 0 0 0 0
24-12-2019 19.9 (15:40) 1.7 (00:00) 10.8 5 (13:10) 3.06 (14:30) 0 0 0 0 0
23-12-2019 18.8 (14:40) 5.1 (00:00) 11.9 10.83 (00:10) 6.67 (00:10) 0 0 0 0 0
22-12-2019 18.3 (14:30) 13.4 (00:00) 15.8 19.72 (01:20) 11.67 (00:30) 0 0 0 0 0
21-12-2019 21.5 (14:10) 10.9 (00:00) 16.2 22.22 (23:40) 12.78 (23:50) 0.4 0.4 0 0 0
20-12-2019 17.4 (10:40) 9.9 (00:00) 13.6 12.22 (05:30) 7.22 (05:40) 3 0 0.8 2 0.2
19-12-2019 12.4 (23:59) 1.6 (05:40) 7 6.67 (23:50) 3.89 (23:50) 0.2 0 0 0.2 0

Gráficas

Temp. máximas Temp. mínimas Temp. medias Precipitaciones Rachas de viento máximas Velocidades máximas media en intervalos de 10 minutos

Datos horarios

Fecha y hora oficial Temperatura (ºC) Velocidad del viento (km/h) Dirección del viento Racha (km/h) Dirección de racha Precipitación (mm) Presión (hPa) Tendencia (hPa) Humedad (%)
2020-01-17 23:00:00 6.7 5 Norte 9 Nordeste 0 -- -- 76
2020-01-17 22:00:00 5.7 7 Noroeste 11 Noroeste 0 -- -- 77
2020-01-17 21:00:00 6.3 4 Noroeste 7 Noroeste 0 -- -- 73
2020-01-17 20:00:00 9.6 6 Oeste 18 Noroeste 0 -- -- 63
2020-01-17 19:00:00 12.5 11 Noroeste 22 Noroeste 0 -- -- 55
2020-01-17 18:00:00 13.5 8 Norte 24 Noroeste 0 -- -- 53
2020-01-17 17:00:00 15.3 14 Noroeste 33 Noroeste 0 -- -- 48
2020-01-17 16:00:00 15.7 17 Noroeste 31 Noroeste 0 -- -- 47
2020-01-17 15:00:00 15.6 19 Noroeste 39 Noroeste 0 -- -- 47
2020-01-17 14:00:00 16 17 Noroeste 32 Noroeste 0 -- -- 46
2020-01-17 13:00:00 15.7 17 Oeste 29 Noroeste 0 -- -- 47
2020-01-17 12:00:00 14.6 18 Noroeste 37 Noroeste 0 -- -- 54
2020-01-17 11:00:00 12.7 11 Noroeste 19 Oeste 0 -- -- 52
2020-01-17 10:00:00 6.4 2 Norte 7 Noroeste 0 -- -- 77
2020-01-17 09:00:00 1.2 3 Este 12 Norte 0 -- -- 91
2020-01-17 08:00:00 -0.7 3 Norte 5 Nordeste 0 -- -- 95
2020-01-17 07:00:00 -0.9 0 Calma 4 Noroeste 0 -- -- 94
2020-01-17 06:00:00 -0.6 2 Sudeste 8 Sudeste 0 -- -- 92
2020-01-17 05:00:00 -0.1 5 Noroeste 9 Noroeste 0 -- -- 94
2020-01-17 04:00:00 -0.4 0 Calma 4 Sur 0 -- -- 92
2020-01-17 03:00:00 0.5 0 Calma 6 Norte 0 -- -- 92
2020-01-17 02:00:00 0.8 0 Calma 6 Norte 0 -- -- 90
2020-01-17 01:00:00 1.1 4 Noroeste 8 Norte 0 -- -- 89
2020-01-17 00:00:00 2.2 0 Calma 6 Norte 0 -- -- 84
2020-01-16 23:00:00 4 3 Norte 9 Norte 0 -- -- 80
2020-01-16 22:00:00 4.8 6 Norte 10 Norte 0 -- -- 79
2020-01-16 21:00:00 5.9 5 Norte 9 Norte 0 -- -- 75
2020-01-16 20:00:00 6.7 5 Norte 8 Oeste 0 -- -- 70
2020-01-16 19:00:00 10.6 6 Oeste 9 Sudoeste 0 -- -- 59
2020-01-16 18:00:00 14.8 4 Oeste 11 Sudoeste 0 -- -- 47
2020-01-16 17:00:00 16.8 8 Sudoeste 13 Sudoeste 0 -- -- 43
2020-01-16 16:00:00 17.3 6 Sudoeste 17 Sudoeste 0 -- -- 45
2020-01-16 15:00:00 16.6 12 Sudoeste 18 Sudoeste 0 -- -- 49
2020-01-16 14:00:00 16.1 8 Sudoeste 14 Sur 0 -- -- 48
2020-01-16 13:00:00 14.8 4 Sudoeste 8 Sur 0 -- -- 53
2020-01-16 12:00:00 12.5 2 Sur 8 Sudeste 0 -- -- 57
2020-01-16 11:00:00 9.3 0 Calma 4 Sudeste 0 -- -- 65
2020-01-16 10:00:00 4.3 2 Noroeste 5 Norte 0 -- -- 87
2020-01-16 09:00:00 -0.6 3 Norte 5 Norte 0 -- -- 96
2020-01-16 08:00:00 -1 0 Calma 8 Norte 0 -- -- 95
2020-01-16 07:00:00 -0.8 3 Nordeste 5 Norte 0 -- -- 96
2020-01-16 06:00:00 -1.3 2 Norte 4 Norte 0 -- -- 94
2020-01-16 05:00:00 -0.9 0 Calma 3 Nordeste 0 -- -- 93
2020-01-16 04:00:00 -0.1 2 Este 4 Este 0 -- -- 91
2020-01-16 03:00:00 1 0 Calma 6 Norte 0 -- -- 91
2020-01-16 02:00:00 1 0 Calma 6 Nordeste 0 -- -- 91
2020-01-16 01:00:00 1.6 0 Calma 6 Norte 0 -- -- 88
2020-01-16 00:00:00 2 3 Norte 6 Norte 0 -- -- 85
2020-01-15 23:00:00 2.8 5 Norte 7 Norte 0 -- -- 84
2020-01-15 22:00:00 3.4 0 Calma 4 Noroeste 0 -- -- 80
2020-01-15 21:00:00 4.5 3 Norte 4 Noroeste 0 -- -- 75
2020-01-15 20:00:00 7 3 Norte 5 Oeste 0 -- -- 68
2020-01-15 19:00:00 9.6 2 Noroeste 13 Oeste 0 -- -- 58
2020-01-15 18:00:00 13 6 Oeste 15 Oeste 0 -- -- 49
2020-01-15 17:00:00 16.1 7 Oeste 17 Sudoeste 0 -- -- 43
2020-01-15 16:00:00 16.5 9 Sudoeste 16 Sudoeste 0 -- -- 43
2020-01-15 15:00:00 15.6 8 Sur 14 Sur 0 -- -- 46
2020-01-15 14:00:00 14.6 8 Sudoeste 13 Sudoeste 0 -- -- 50
2020-01-15 13:00:00 12.6 3 Sur 7 Sudoeste 0 -- -- 55
2020-01-15 12:00:00 10.2 0 Calma 4 Este 0 -- -- 62
2020-01-15 11:00:00 5.1 0 Calma 5 Sudeste 0 -- -- 81
2020-01-15 10:00:00 1.1 0 Calma 3 Sudeste 0 -- -- 95
2020-01-15 09:00:00 -2.1 0 Calma 4 Noroeste 0 -- -- 96
2020-01-15 08:00:00 -2.9 0 Calma 6 Este 0 -- -- 94
2020-01-15 07:00:00 -2.4 0 Calma 2 Nordeste 0 -- -- 94
2020-01-15 06:00:00 -1.8 0 Calma 4 Norte 0 -- -- 93
2020-01-15 05:00:00 -1.3 0 Calma 5 Nordeste 0 -- -- 93
2020-01-15 04:00:00 -1 0 Calma 6 Norte 0 -- -- 91
2020-01-15 03:00:00 -0.7 0 Calma 4 Este 0 -- -- 89
2020-01-15 02:00:00 0.5 2 Este 8 Norte 0 -- -- 85
2020-01-15 01:00:00 1.2 5 Norte 8 Norte 0 -- -- 84
2020-01-15 00:00:00 3.1 4 Noroeste 6 Noroeste 0 -- -- 78
2020-01-14 23:00:00 4.2 0 Calma 14 Norte 0 -- -- 74
2020-01-14 22:00:00 4.2 6 Norte 10 Norte 0 -- -- 75
2020-01-14 21:00:00 3.7 4 Norte 10 Norte 0 -- -- 76
2020-01-14 20:00:00 5.6 6 Noroeste 9 Noroeste 0 -- -- 68
2020-01-14 19:00:00 6.8 5 Norte 8 Norte 0 -- -- 63
2020-01-14 18:00:00 10.9 4 Noroeste 13 Norte 0 -- -- 48
2020-01-14 17:00:00 14.1 9 Norte 14 Noroeste 0 -- -- 38
2020-01-14 16:00:00 14.9 6 Oeste 14 Oeste 0 -- -- 35
2020-01-14 15:00:00 14.2 6 Oeste 15 Noroeste 0 -- -- 37
2020-01-14 14:00:00 13.2 8 Noroeste 16 Norte 0 -- -- 40
2020-01-14 13:00:00 11.8 6 Norte 18 Norte 0 -- -- 50
2020-01-14 12:00:00 10.3 9 Norte 19 Norte 0 -- -- 54
2020-01-14 11:00:00 8.6 6 Norte 13 Nordeste 0 -- -- 60
2020-01-14 10:00:00 5.8 0 Calma 10 Norte 0 -- -- 71
2020-01-14 09:00:00 0.7 4 Norte 9 Norte 0 -- -- 92
2020-01-14 08:00:00 -1.7 4 Norte 10 Noroeste 0 -- -- 90
2020-01-14 07:00:00 -1.8 3 Noroeste 6 Norte 0 -- -- 87
2020-01-14 06:00:00 -1.8 0 Calma 4 Este 0 -- -- 83
2020-01-14 05:00:00 -1.1 2 Noroeste 9 Oeste 0 -- -- 77
2020-01-14 04:00:00 -1.1 0 Calma 9 Norte 0 -- -- 78
2020-01-14 03:00:00 -0.9 3 Norte 6 Oeste 0 -- -- 81
2020-01-14 02:00:00 1.1 2 Sur 9 Norte 0 -- -- 78
2020-01-14 01:00:00 2.7 5 Noroeste 13 Norte 0 -- -- 73
2020-01-14 00:00:00 1.7 5 Norte 8 Nordeste 0 -- -- 79
2020-01-13 23:00:00 3.2 0 Calma 6 Nordeste 0 -- -- 71
2020-01-13 22:00:00 4.5 2 Nordeste 8 Norte 0 -- -- 68
2020-01-13 21:00:00 6.1 2 Norte 5 Norte 0 -- -- 63
2020-01-13 20:00:00 6.6 2 Sur 12 Noroeste 0 -- -- 62
2020-01-13 19:00:00 7.9 4 Norte 11 Sudoeste 0 -- -- 58
2020-01-13 18:00:00 11.1 5 Sudoeste 12 Sudoeste 0 -- -- 48
2020-01-13 17:00:00 12.8 8 Sudoeste 15 Sudoeste 0 -- -- 43
2020-01-13 16:00:00 14 10 Sudoeste 17 Sudoeste 0 -- -- 43
2020-01-13 15:00:00 13.6 8 Sur 14 Sudoeste 0 -- -- 44
2020-01-13 14:00:00 13.3 8 Sudoeste 13 Sur 0 -- -- 45
2020-01-13 13:00:00 12 8 Sudoeste 12 Sur 0 -- -- 50
2020-01-13 12:00:00 9.4 0 Calma 5 Este 0 -- -- 57
2020-01-13 11:00:00 4.4 0 Calma 4 Este 0 -- -- 75
2020-01-13 10:00:00 -0.7 3 Este 6 Este 0 -- -- 88
2020-01-13 09:00:00 -3.2 0 Calma 8 Norte 0 -- -- 95
2020-01-13 08:00:00 -4.9 0 Calma 4 Norte 0 -- -- 94
2020-01-13 07:00:00 -4 0 Calma 6 Norte 0 -- -- 93
2020-01-13 06:00:00 -4 2 Norte 4 Norte 0 -- -- 93
2020-01-13 05:00:00 -3.6 0 Calma 4 Sudeste 0 -- -- 91
2020-01-13 04:00:00 -3.1 3 Noroeste 4 Noroeste 0 -- -- 92
2020-01-13 03:00:00 -2.7 0 Calma 4 Noroeste 0 -- -- 88
2020-01-13 02:00:00 -1.8 2 Este 4 Nordeste 0 -- -- 85
2020-01-13 01:00:00 -0.9 2 Nordeste 8 Norte 0 -- -- 83
2020-01-13 00:00:00 -0.7 4 Norte 9 Noroeste 0 -- -- 82
2020-01-12 23:00:00 0.1 4 Noroeste 8 Norte 0 -- -- 78
2020-01-12 22:00:00 1.5 2 Noroeste 6 Noroeste 0 -- -- 72
2020-01-12 21:00:00 4.2 3 Norte 10 Norte 0 -- -- 62
2020-01-12 20:00:00 6.5 4 Norte 11 Noroeste 0 -- -- 56
2020-01-12 19:00:00 8.1 7 Noroeste 12 Noroeste 0 -- -- 51
2020-01-12 18:00:00 11.6 5 Noroeste 16 Noroeste 0 -- -- 40
2020-01-12 17:00:00 14 10 Noroeste 19 Noroeste 0 -- -- 35
2020-01-12 16:00:00 14 13 Noroeste 25 Noroeste 0 -- -- 35
2020-01-12 15:00:00 13.8 14 Norte 29 Noroeste 0 -- -- 34
2020-01-12 14:00:00 13.3 15 Norte 28 Noroeste 0 -- -- 35
2020-01-12 13:00:00 12.3 9 Norte 28 Norte 0 -- -- 42
2020-01-12 12:00:00 10.6 13 Norte 23 Norte 0 -- -- 46
2020-01-12 11:00:00 8.8 0 Calma 10 Nordeste 0 -- -- 55
2020-01-12 10:00:00 5.4 2 Nordeste 11 Norte 0 -- -- 67
2020-01-12 09:00:00 0.9 7 Norte 13 Norte 0 -- -- 85
2020-01-12 08:00:00 -3.6 3 Nordeste 8 Nordeste 0 -- -- 94
2020-01-12 07:00:00 -3.7 0 Calma 4 Este 0 -- -- 94
2020-01-12 06:00:00 -3.1 2 Sudeste 3 Sudeste 0 -- -- 95
2020-01-12 05:00:00 -3.1 0 Calma 2 Este 0 -- -- 93
2020-01-12 04:00:00 -2.3 0 Calma 4 Este 0 -- -- 93
2020-01-12 03:00:00 -2 0 Calma 3 Este 0 -- -- 91
2020-01-12 02:00:00 -1 0 Calma 5 Norte 0 -- -- 90
2020-01-12 01:00:00 -0.3 2 Nordeste 4 Nordeste 0 -- -- 88
2020-01-12 00:00:00 0.8 0 Calma 8 Norte 0 -- -- 84
2020-01-11 23:00:00 1.6 0 Calma 7 Norte 0 -- -- 81
2020-01-11 22:00:00 2.8 0 Calma 10 Norte 0 -- -- 77
2020-01-11 21:00:00 3.7 5 Noroeste 8 Oeste 0 -- -- 75
2020-01-11 20:00:00 5.9 4 Este 9 Este 0 -- -- 68
2020-01-11 19:00:00 8.3 5 Noroeste 9 Noroeste 0 -- -- 58
2020-01-11 18:00:00 11.7 4 Noroeste 10 Noroeste 0 -- -- 50
2020-01-11 17:00:00 14.1 2 Sur 15 Nordeste 0 -- -- 42
2020-01-11 16:00:00 14.4 2 Oeste 15 Sudeste 0 -- -- 40
2020-01-11 15:00:00 13.4 5 Sudeste 13 Sudeste 0 -- -- 46
2020-01-11 14:00:00 12.4 6 Este 16 Este 0 -- -- 50
2020-01-11 13:00:00 12.2 7 Este 15 Este 0 -- -- 49
2020-01-11 12:00:00 10.7 5 Nordeste 11 Nordeste 0 -- -- 55
2020-01-11 11:00:00 8.6 4 Este 13 Norte 0 -- -- 66
2020-01-11 10:00:00 5.8 2 Este 11 Norte 0 -- -- 75
2020-01-11 09:00:00 3.3 5 Norte 11 Nordeste 0 -- -- 84
2020-01-11 08:00:00 3 5 Norte 9 Norte 0 -- -- 82
2020-01-11 07:00:00 4 6 Norte 12 Norte 0 -- -- 79
2020-01-11 06:00:00 4.8 9 Norte 13 Norte 0 -- -- 76
2020-01-11 05:00:00 4.8 0 Calma 10 Norte 0 -- -- 78
2020-01-11 04:00:00 4.5 4 Norte 12 Norte 0 -- -- 83
2020-01-11 03:00:00 4.4 6 Norte 13 Norte 0 -- -- 84
2020-01-11 02:00:00 4.3 6 Noroeste 13 Norte 0 -- -- 84
2020-01-11 01:00:00 5.5 6 Norte 9 Norte 0 -- -- 79
2020-01-11 00:00:00 5.9 6 Norte 17 Norte 0 -- -- 80
2020-01-10 23:00:00 5.6 6 Norte 16 Nordeste 0 -- -- 79
2020-01-10 22:00:00 6.7 4 Nordeste 12 Nordeste 0 -- -- 76
2020-01-10 21:00:00 6.8 5 Nordeste 15 Nordeste 0 -- -- 77
2020-01-10 20:00:00 7.7 10 Este 36 Este 0 -- -- 72
2020-01-10 19:00:00 8.7 17 Nordeste 39 Este 0 -- -- 68
2020-01-10 18:00:00 11.5 14 Este 26 Este 0 -- -- 53
2020-01-10 17:00:00 12.7 9 Nordeste 22 Norte 0 -- -- 42
2020-01-10 16:00:00 13.4 12 Nordeste 25 Nordeste 0 -- -- 41
2020-01-10 15:00:00 13.3 11 Nordeste 28 Este 0 -- -- 45
2020-01-10 14:00:00 13.3 15 Norte 30 Norte 0 -- -- 50
2020-01-10 13:00:00 12.4 13 Norte 23 Norte 0 -- -- 55
2020-01-10 12:00:00 10.5 4 Nordeste 15 Norte 0 -- -- 67
2020-01-10 11:00:00 8.9 8 Norte 22 Noroeste 0 -- -- 74
2020-01-10 10:00:00 8.3 10 Norte 26 Norte 0 -- -- 79
2020-01-10 09:00:00 3.4 5 Nordeste 10 Norte 0 -- -- 99
2020-01-10 08:00:00 2.1 3 Norte 7 Noroeste 0 -- -- 92
2020-01-10 07:00:00 4.4 3 Sudoeste 13 Noroeste 0 -- -- 88
2020-01-10 06:00:00 2.4 5 Norte 8 Noroeste 0 -- -- 96
2020-01-10 05:00:00 2.7 2 Noroeste 10 Norte 0 -- -- 96
2020-01-10 04:00:00 2.2 4 Nordeste 10 Norte 0 -- -- 97
2020-01-10 03:00:00 1.8 3 Nordeste 6 Este 0 -- -- 95
2020-01-10 02:00:00 2.3 4 Noroeste 5 Nordeste 0 -- -- 94
2020-01-10 01:00:00 3.1 0 Calma 7 Norte 0 -- -- 90
2020-01-10 00:00:00 4.8 3 Norte 11 Norte 0 -- -- 91
2020-01-09 23:00:00 4.5 5 Noroeste 12 Norte 0 -- -- 91
2020-01-09 22:00:00 4.8 0 Calma 5 Norte 0 -- -- 88
2020-01-09 21:00:00 5.4 0 Calma 5 Este 0 -- -- 87
2020-01-09 20:00:00 6.7 2 Norte 12 Oeste 0 -- -- 80
2020-01-09 19:00:00 8.8 5 Oeste 8 Sudoeste 0 -- -- 75
2020-01-09 18:00:00 11.2 6 Sudoeste 12 Oeste 0 -- -- 66
2020-01-09 17:00:00 14 4 Sudoeste 10 Sur 0 -- -- 57
2020-01-09 16:00:00 14.2 4 Sudoeste 11 Sudoeste 0 -- -- 56
2020-01-09 15:00:00 13.7 6 Oeste 13 Sudoeste 0 -- -- 57
2020-01-09 14:00:00 12.8 7 Sudoeste 12 Oeste 0 -- -- 64
2020-01-09 13:00:00 11.9 3 Sudoeste 9 Sudoeste 0 -- -- 68
2020-01-09 12:00:00 8.9 0 Calma 9 Sudeste 0 -- -- 86
2020-01-09 11:00:00 7.4 4 Sudeste 7 Sudeste 0 -- -- 94
2020-01-09 10:00:00 5.8 2 Norte 4 Noroeste 0 -- -- 100
2020-01-09 09:00:00 4.9 0 Calma 4 Este 0 -- -- 99
2020-01-09 08:00:00 4.7 0 Calma 6 Sudeste 0 -- -- 99
2020-01-09 07:00:00 4.9 2 Este 6 Este 0 -- -- 99
2020-01-09 06:00:00 4.9 0 Calma 6 Norte 0 -- -- 99
2020-01-09 05:00:00 4.8 4 Noroeste 6 Noroeste 0 -- -- 98
2020-01-09 04:00:00 4.8 3 Norte 6 Norte 0 -- -- 99
2020-01-09 03:00:00 4.5 4 Norte 11 Noroeste 0 -- -- 99
2020-01-09 02:00:00 4.1 7 Norte 10 Norte 0 -- -- 98
2020-01-09 01:00:00 4.6 2 Nordeste 5 Nordeste 0 -- -- 98
2020-01-09 00:00:00 4.5 2 Norte 6 Este 0 -- -- 97
2020-01-08 23:00:00 4.1 5 Este 9 Este 0 -- -- 95
2020-01-08 22:00:00 4.1 0 Calma 5 Este 0 -- -- 92
2020-01-08 21:00:00 5.7 3 Nordeste 6 Este 0 -- -- 91
2020-01-08 20:00:00 7 0 Calma 14 Sudeste 0 -- -- 83
2020-01-08 19:00:00 9.2 10 Sudeste 18 Sudeste 0 -- -- 76
2020-01-08 18:00:00 11.6 5 Sur 15 Sudeste 0 -- -- 63
2020-01-08 17:00:00 14.5 8 Sur 15 Sur 0 -- -- 52
2020-01-08 16:00:00 16.1 8 Sudoeste 15 Sudoeste 0 -- -- 43
2020-01-08 15:00:00 16.6 9 Sudoeste 20 Este 0 -- -- 41
2020-01-08 14:00:00 15.4 9 Este 20 Sudeste 0 -- -- 42
2020-01-08 13:00:00 14.4 15 Este 27 Este 0 -- -- 41
2020-01-08 12:00:00 11.5 7 Sudeste 14 Sudeste 0 -- -- 52
2020-01-08 11:00:00 8.2 5 Este 10 Este 0 -- -- 68
2020-01-08 10:00:00 4.1 6 Este 9 Este 0 -- -- 82
2020-01-08 09:00:00 -1 3 Norte 5 Norte 0 -- -- 97
2020-01-08 08:00:00 -2 0 Calma 6 Este 0 -- -- 95
2020-01-08 07:00:00 -2.2 0 Calma 5 Este 0 -- -- 96
2020-01-08 06:00:00 -2.1 0 Calma 5 Este 0 -- -- 95
2020-01-08 05:00:00 -2.1 0 Calma 5 Este 0 -- -- 95
2020-01-08 04:00:00 -2 0 Calma 3 Este 0 -- -- 93
2020-01-08 03:00:00 -1.3 0 Calma 5 Sudoeste 0 -- -- 92
2020-01-08 02:00:00 -0.6 0 Calma 5 Nordeste 0 -- -- 90
2020-01-08 01:00:00 1.2 3 Nordeste 8 Norte 0 -- -- 84
2020-01-08 00:00:00 0.7 3 Norte 5 Noroeste 0 -- -- 90
2020-01-07 23:00:00 1.9 4 Noroeste 6 Noroeste 0 -- -- 86
2020-01-07 22:00:00 2.5 2 Norte 6 Noroeste 0 -- -- 83
2020-01-07 21:00:00 4.3 3 Noroeste 10 Noroeste 0 -- -- 78
2020-01-07 20:00:00 4.5 4 Noroeste 5 Norte 0 -- -- 77
2020-01-07 19:00:00 8.4 2 Oeste 10 Sudoeste 0 -- -- 63
2020-01-07 18:00:00 12 6 Sudoeste 13 Sudoeste 0 -- -- 51
2020-01-07 17:00:00 14.8 8 Sudoeste 17 Sudoeste 0 -- -- 47
2020-01-07 16:00:00 15.5 11 Sudoeste 17 Sudoeste 0 -- -- 47
2020-01-07 15:00:00 15.6 8 Sudoeste 16 Sudoeste 0 -- -- 44
2020-01-07 14:00:00 15.2 9 Sudoeste 14 Sudoeste 0 -- -- 45
2020-01-07 13:00:00 13.4 0 Calma 7 Sudeste 0 -- -- 47
2020-01-07 12:00:00 10 5 Este 8 Sudeste 0 -- -- 59
2020-01-07 11:00:00 7.1 0 Calma 5 Este 0 -- -- 71
2020-01-07 10:00:00 2.4 3 Sudeste 6 Norte 0 -- -- 84
2020-01-07 09:00:00 -1.1 2 Norte 5 Norte 0 -- -- 97
2020-01-07 08:00:00 -2.3 0 Calma 7 Nordeste 0 -- -- 95
2020-01-07 07:00:00 -2.2 0 Calma 3 Nordeste 0 -- -- 94
2020-01-07 06:00:00 -1.5 2 Norte 6 Norte 0 -- -- 93
2020-01-07 05:00:00 -1.5 3 Norte 7 Norte 0 -- -- 94
2020-01-07 04:00:00 -0.9 3 Nordeste 8 Nordeste 0 -- -- 92
2020-01-07 03:00:00 -1.1 4 Norte 7 Norte 0 -- -- 93
2020-01-07 02:00:00 -0.6 3 Norte 4 Norte 0 -- -- 91
2020-01-07 01:00:00 0.3 0 Calma 8 Noroeste 0 -- -- 90
2020-01-07 00:00:00 0.7 0 Calma 6 Norte 0 -- -- 89
2020-01-06 23:00:00 1.8 3 Nordeste 9 Norte 0 -- -- 85
2020-01-06 22:00:00 2.4 5 Norte 9 Norte 0 -- -- 85
2020-01-06 21:00:00 3.2 4 Noroeste 8 Norte 0 -- -- 82
2020-01-06 20:00:00 4.5 4 Noroeste 12 Oeste 0 -- -- 76
2020-01-06 19:00:00 7.9 7 Oeste 12 Sudoeste 0 -- -- 65
2020-01-06 18:00:00 10.9 7 Sudoeste 16 Sudoeste 0 -- -- 58
2020-01-06 17:00:00 14.3 11 Sudoeste 15 Sudoeste 0 -- -- 51
2020-01-06 16:00:00 16 5 Sur 9 Sudoeste 0 -- -- 39
2020-01-06 15:00:00 15.4 3 Sur 8 Sudoeste 0 -- -- 45
2020-01-06 14:00:00 13.9 2 Sudoeste 6 Sudeste 0 -- -- 51
2020-01-06 13:00:00 10.7 3 Este 6 Este 0 -- -- 61
2020-01-06 12:00:00 6.5 2 Sudeste 8 Este 0 -- -- 98
2020-01-06 11:00:00 2.3 3 Nordeste 6 Este 0 -- -- 100
2020-01-06 10:00:00 0.4 2 Nordeste 7 Norte 0 -- -- 100